sensor_id;sensor_type;location;lat;lon;timestamp;pressure;altitude;pressure_sealevel;temperature;humidity
43770;BME280;6597;52.218;9.882;2023-07-29T00:01:27;99957.63;;;19.61;100.00
43770;BME280;6597;52.218;9.882;2023-07-29T00:03:53;99955.38;;;19.56;100.00
43770;BME280;6597;52.218;9.882;2023-07-29T00:06:20;99958.28;;;19.53;100.00
43770;BME280;6597;52.218;9.882;2023-07-29T00:08:46;99956.47;;;19.54;100.00
43770;BME280;6597;52.218;9.882;2023-07-29T00:11:13;99960.22;;;19.51;100.00
43770;BME280;6597;52.218;9.882;2023-07-29T00:13:39;99960.22;;;19.51;100.00
43770;BME280;6597;52.218;9.882;2023-07-29T00:16:06;99970.84;;;19.51;100.00
43770;BME280;6597;52.218;9.882;2023-07-29T00:18:34;99968.81;;;19.55;100.00
43770;BME280;6597;52.218;9.882;2023-07-29T00:21:01;99960.56;;;19.47;100.00
43770;BME280;6597;52.218;9.882;2023-07-29T00:23:27;99963.22;;;19.47;100.00
43770;BME280;6597;52.218;9.882;2023-07-29T00:25:54;99973.88;;;19.47;100.00
43770;BME280;6597;52.218;9.882;2023-07-29T00:28:20;99978.22;;;19.48;100.00
43770;BME280;6597;52.218;9.882;2023-07-29T00:30:47;99968.44;;;19.48;100.00
43770;BME280;6597;52.218;9.882;2023-07-29T00:33:13;99971.34;;;19.45;100.00
43770;BME280;6597;52.218;9.882;2023-07-29T00:35:41;99961.69;;;19.44;100.00
43770;BME280;6597;52.218;9.882;2023-07-29T00:38:08;99967.06;;;19.33;100.00
43770;BME280;6597;52.218;9.882;2023-07-29T00:40:35;99968.50;;;19.37;100.00
43770;BME280;6597;52.218;9.882;2023-07-29T00:43:02;99965.13;;;19.35;100.00
43770;BME280;6597;52.218;9.882;2023-07-29T00:45:29;99967.66;;;19.37;100.00
43770;BME280;6597;52.218;9.882;2023-07-29T00:47:56;99954.59;;;19.34;100.00
43770;BME280;6597;52.218;9.882;2023-07-29T00:50:23;99961.03;;;19.31;100.00
43770;BME280;6597;52.218;9.882;2023-07-29T00:52:52;99963.81;;;19.30;100.00
43770;BME280;6597;52.218;9.882;2023-07-29T00:55:18;99961.56;;;19.25;100.00
43770;BME280;6597;52.218;9.882;2023-07-29T00:57:45;99969.66;;;19.23;100.00
43770;BME280;6597;52.218;9.882;2023-07-29T01:00:14;99952.00;;;19.22;100.00
43770;BME280;6597;52.218;9.882;2023-07-29T01:02:42;99954.81;;;19.21;100.00
43770;BME280;6597;52.218;9.882;2023-07-29T01:05:11;99958.66;;;19.17;100.00
43770;BME280;6597;52.218;9.882;2023-07-29T01:07:44;99957.81;;;19.16;100.00
43770;BME280;6597;52.218;9.882;2023-07-29T01:10:21;99949.25;;;19.13;100.00
43770;BME280;6597;52.218;9.882;2023-07-29T01:12:56;99953.84;;;19.11;100.00
43770;BME280;6597;52.218;9.882;2023-07-29T01:15:28;99949.06;;;19.05;100.00
43770;BME280;6597;52.218;9.882;2023-07-29T01:18:12;99949.94;;;18.94;100.00
43770;BME280;6597;52.218;9.882;2023-07-29T01:20:42;99951.63;;;18.95;100.00
43770;BME280;6597;52.218;9.882;2023-07-29T01:23:10;99950.22;;;18.91;100.00
43770;BME280;6597;52.218;9.882;2023-07-29T01:25:38;99947.06;;;18.86;100.00
43770;BME280;6597;52.218;9.882;2023-07-29T01:28:05;99943.81;;;18.82;100.00
43770;BME280;6597;52.218;9.882;2023-07-29T01:30:37;99948.66;;;18.77;100.00
43770;BME280;6597;52.218;9.882;2023-07-29T01:33:10;99937.09;;;18.67;100.00
43770;BME280;6597;52.218;9.882;2023-07-29T01:35:42;99937.34;;;18.64;100.00
43770;BME280;6597;52.218;9.882;2023-07-29T01:38:14;99934.19;;;18.59;100.00
43770;BME280;6597;52.218;9.882;2023-07-29T01:40:44;99939.63;;;18.57;100.00
43770;BME280;6597;52.218;9.882;2023-07-29T01:43:12;99931.78;;;18.56;100.00
43770;BME280;6597;52.218;9.882;2023-07-29T01:45:39;99937.22;;;18.54;100.00
43770;BME280;6597;52.218;9.882;2023-07-29T01:48:06;99935.63;;;18.52;100.00
43770;BME280;6597;52.218;9.882;2023-07-29T01:50:33;99938.06;;;18.55;100.00
43770;BME280;6597;52.218;9.882;2023-07-29T01:53:00;99931.06;;;18.54;100.00
43770;BME280;6597;52.218;9.882;2023-07-29T01:55:26;99936.38;;;18.54;100.00
43770;BME280;6597;52.218;9.882;2023-07-29T01:57:54;99931.16;;;18.52;100.00
43770;BME280;6597;52.218;9.882;2023-07-29T02:00:22;99932.00;;;18.53;100.00
43770;BME280;6597;52.218;9.882;2023-07-29T02:02:49;99931.91;;;18.54;100.00
43770;BME280;6597;52.218;9.882;2023-07-29T02:05:15;99934.06;;;18.49;100.00
43770;BME280;6597;52.218;9.882;2023-07-29T02:07:42;99934.66;;;18.53;100.00
43770;BME280;6597;52.218;9.882;2023-07-29T02:10:09;99924.03;;;18.53;100.00
43770;BME280;6597;52.218;9.882;2023-07-29T02:12:35;99922.84;;;18.57;100.00
43770;BME280;6597;52.218;9.882;2023-07-29T02:15:04;99917.78;;;18.54;100.00
43770;BME280;6597;52.218;9.882;2023-07-29T02:17:31;99913.41;;;18.53;100.00
43770;BME280;6597;52.218;9.882;2023-07-29T02:19:57;99908.84;;;18.55;100.00
43770;BME280;6597;52.218;9.882;2023-07-29T02:22:24;99909.69;;;18.55;100.00
43770;BME280;6597;52.218;9.882;2023-07-29T02:24:50;99916.91;;;18.53;100.00
43770;BME280;6597;52.218;9.882;2023-07-29T02:27:17;99901.84;;;18.54;100.00
43770;BME280;6597;52.218;9.882;2023-07-29T02:29:43;99910.53;;;18.56;100.00
43770;BME280;6597;52.218;9.882;2023-07-29T02:32:11;99905.94;;;18.58;100.00
43770;BME280;6597;52.218;9.882;2023-07-29T02:34:38;99902.56;;;18.56;100.00
43770;BME280;6597;52.218;9.882;2023-07-29T02:37:05;99900.13;;;18.53;100.00
43770;BME280;6597;52.218;9.882;2023-07-29T02:39:32;99897.38;;;18.54;100.00
43770;BME280;6597;52.218;9.882;2023-07-29T02:41:58;99893.88;;;18.54;100.00
43770;BME280;6597;52.218;9.882;2023-07-29T02:44:25;99890.09;;;18.56;100.00
43770;BME280;6597;52.218;9.882;2023-07-29T02:46:51;99901.59;;;18.57;100.00
43770;BME280;6597;52.218;9.882;2023-07-29T02:49:21;99912.81;;;18.60;100.00
43770;BME280;6597;52.218;9.882;2023-07-29T02:51:48;99911.50;;;18.66;100.00
43770;BME280;6597;52.218;9.882;2023-07-29T02:54:15;99912.19;;;18.68;100.00
43770;BME280;6597;52.218;9.882;2023-07-29T02:56:41;99910.25;;;18.70;100.00
43770;BME280;6597;52.218;9.882;2023-07-29T02:59:08;99912.66;;;18.73;100.00
43770;BME280;6597;52.218;9.882;2023-07-29T03:01:34;99913.38;;;18.75;100.00
43770;BME280;6597;52.218;9.882;2023-07-29T03:04:01;99916.88;;;18.76;100.00
43770;BME280;6597;52.218;9.882;2023-07-29T03:06:29;99918.44;;;18.78;100.00
43770;BME280;6597;52.218;9.882;2023-07-29T03:08:55;99911.44;;;18.77;100.00
43770;BME280;6597;52.218;9.882;2023-07-29T03:11:22;99918.69;;;18.75;100.00
43770;BME280;6597;52.218;9.882;2023-07-29T03:13:48;99918.81;;;18.74;100.00
43770;BME280;6597;52.218;9.882;2023-07-29T03:16:16;99911.69;;;18.74;100.00
43770;BME280;6597;52.218;9.882;2023-07-29T03:18:53;99910.84;;;18.74;100.00
43770;BME280;6597;52.218;9.882;2023-07-29T03:21:20;99893.94;;;18.75;100.00
43770;BME280;6597;52.218;9.882;2023-07-29T03:23:48;99899.97;;;18.77;100.00
43770;BME280;6597;52.218;9.882;2023-07-29T03:26:14;99884.25;;;18.74;100.00
43770;BME280;6597;52.218;9.882;2023-07-29T03:28:42;99891.59;;;18.81;100.00
43770;BME280;6597;52.218;9.882;2023-07-29T03:31:09;99886.28;;;18.81;100.00
43770;BME280;6597;52.218;9.882;2023-07-29T03:33:36;99879.00;;;18.83;100.00
43770;BME280;6597;52.218;9.882;2023-07-29T03:36:03;99886.78;;;18.86;100.00
43770;BME280;6597;52.218;9.882;2023-07-29T03:38:30;99891.13;;;18.87;100.00
43770;BME280;6597;52.218;9.882;2023-07-29T03:40:59;99892.81;;;18.88;100.00
43770;BME280;6597;52.218;9.882;2023-07-29T03:43:27;99898.97;;;18.89;100.00
43770;BME280;6597;52.218;9.882;2023-07-29T03:45:55;99899.81;;;18.89;100.00
43770;BME280;6597;52.218;9.882;2023-07-29T03:48:22;99897.28;;;18.88;100.00
43770;BME280;6597;52.218;9.882;2023-07-29T03:50:49;99889.91;;;18.80;100.00
43770;BME280;6597;52.218;9.882;2023-07-29T03:53:15;99888.09;;;18.81;100.00
43770;BME280;6597;52.218;9.882;2023-07-29T03:55:42;99878.31;;;18.81;100.00
43770;BME280;6597;52.218;9.882;2023-07-29T03:58:10;99873.13;;;18.80;100.00
43770;BME280;6597;52.218;9.882;2023-07-29T04:00:37;99875.63;;;18.81;100.00
43770;BME280;6597;52.218;9.882;2023-07-29T04:03:04;99882.66;;;18.82;100.00
43770;BME280;6597;52.218;9.882;2023-07-29T04:05:30;99882.53;;;18.84;100.00
43770;BME280;6597;52.218;9.882;2023-07-29T04:07:57;99878.88;;;18.85;100.00
43770;BME280;6597;52.218;9.882;2023-07-29T04:10:23;99882.16;;;18.88;100.00
43770;BME280;6597;52.218;9.882;2023-07-29T04:12:50;99877.56;;;18.90;100.00
43770;BME280;6597;52.218;9.882;2023-07-29T04:15:18;99862.31;;;18.92;100.00
43770;BME280;6597;52.218;9.882;2023-07-29T04:17:44;99868.59;;;18.91;100.00
43770;BME280;6597;52.218;9.882;2023-07-29T04:20:11;99864.25;;;18.90;100.00
43770;BME280;6597;52.218;9.882;2023-07-29T04:22:38;99860.88;;;18.88;100.00
43770;BME280;6597;52.218;9.882;2023-07-29T04:25:05;99863.28;;;18.91;100.00
43770;BME280;6597;52.218;9.882;2023-07-29T04:27:32;99864.00;;;18.93;100.00
43770;BME280;6597;52.218;9.882;2023-07-29T04:29:58;99863.03;;;18.94;100.00
43770;BME280;6597;52.218;9.882;2023-07-29T04:32:26;99859.66;;;18.92;100.00
43770;BME280;6597;52.218;9.882;2023-07-29T04:34:53;99857.72;;;18.94;100.00
43770;BME280;6597;52.218;9.882;2023-07-29T04:37:19;99853.81;;;18.99;100.00
43770;BME280;6597;52.218;9.882;2023-07-29T04:39:46;99856.09;;;19.03;100.00
43770;BME280;6597;52.218;9.882;2023-07-29T04:42:13;99856.94;;;19.04;100.00
43770;BME280;6597;52.218;9.882;2023-07-29T04:44:40;99844.59;;;19.03;100.00
43770;BME280;6597;52.218;9.882;2023-07-29T04:47:08;99854.53;;;19.01;100.00
43770;BME280;6597;52.218;9.882;2023-07-29T04:49:38;99847.41;;;19.01;100.00
43770;BME280;6597;52.218;9.882;2023-07-29T04:52:05;99848.09;;;19.03;100.00
43770;BME280;6597;52.218;9.882;2023-07-29T04:54:32;99861.13;;;19.06;100.00
43770;BME280;6597;52.218;9.882;2023-07-29T04:56:59;99852.06;;;19.09;100.00
43770;BME280;6597;52.218;9.882;2023-07-29T04:59:26;99852.63;;;19.12;100.00
43770;BME280;6597;52.218;9.882;2023-07-29T05:01:53;99850.69;;;19.14;100.00
43770;BME280;6597;52.218;9.882;2023-07-29T05:04:19;99848.16;;;19.13;100.00
43770;BME280;6597;52.218;9.882;2023-07-29T05:06:48;99850.69;;;19.14;100.00
43770;BME280;6597;52.218;9.882;2023-07-29T05:09:17;99848.59;;;19.18;100.00
43770;BME280;6597;52.218;9.882;2023-07-29T05:11:44;99842.06;;;19.22;100.00
43770;BME280;6597;52.218;9.882;2023-07-29T05:14:11;99844.34;;;19.26;100.00
43770;BME280;6597;52.218;9.882;2023-07-29T05:16:37;99848.56;;;19.29;100.00
43770;BME280;6597;52.218;9.882;2023-07-29T05:19:04;99851.78;;;19.33;100.00
43770;BME280;6597;52.218;9.882;2023-07-29T05:21:30;99850.09;;;19.32;100.00
43770;BME280;6597;52.218;9.882;2023-07-29T05:23:58;99849.97;;;19.33;100.00
43770;BME280;6597;52.218;9.882;2023-07-29T05:26:25;99849.72;;;19.36;100.00
43770;BME280;6597;52.218;9.882;2023-07-29T05:28:52;99840.63;;;19.39;100.00
43770;BME280;6597;52.218;9.882;2023-07-29T05:31:18;99841.91;;;19.44;100.00
43770;BME280;6597;52.218;9.882;2023-07-29T05:33:45;99841.63;;;19.47;100.00
43770;BME280;6597;52.218;9.882;2023-07-29T05:36:12;99833.38;;;19.50;100.00
43770;BME280;6597;52.218;9.882;2023-07-29T05:38:38;99842.19;;;19.51;100.00
43770;BME280;6597;52.218;9.882;2023-07-29T05:41:06;99846.69;;;19.50;100.00
43770;BME280;6597;52.218;9.882;2023-07-29T05:43:33;99852.00;;;19.50;100.00
43770;BME280;6597;52.218;9.882;2023-07-29T05:45:59;99856.88;;;19.45;100.00
43770;BME280;6597;52.218;9.882;2023-07-29T05:48:27;99855.47;;;19.41;100.00
43770;BME280;6597;52.218;9.882;2023-07-29T05:50:53;99848.03;;;19.35;100.00
43770;BME280;6597;52.218;9.882;2023-07-29T05:53:20;99845.19;;;19.27;100.00
43770;BME280;6597;52.218;9.882;2023-07-29T05:55:46;99849.94;;;19.23;100.00
43770;BME280;6597;52.218;9.882;2023-07-29T05:58:14;99839.53;;;19.20;100.00
43770;BME280;6597;52.218;9.882;2023-07-29T06:00:41;99834.34;;;19.19;100.00
43770;BME280;6597;52.218;9.882;2023-07-29T06:03:07;99833.97;;;19.23;100.00
43770;BME280;6597;52.218;9.882;2023-07-29T06:05:34;99830.72;;;19.20;100.00
43770;BME280;6597;52.218;9.882;2023-07-29T06:08:02;99824.66;;;19.18;100.00
43770;BME280;6597;52.218;9.882;2023-07-29T06:10:29;99814.03;;;19.18;100.00
43770;BME280;6597;52.218;9.882;2023-07-29T06:12:56;99813.06;;;19.19;100.00
43770;BME280;6597;52.218;9.882;2023-07-29T06:15:24;99820.78;;;19.22;100.00
43770;BME280;6597;52.218;9.882;2023-07-29T06:17:50;99811.44;;;19.27;100.00
43770;BME280;6597;52.218;9.882;2023-07-29T06:20:17;99834.13;;;19.32;100.00
43770;BME280;6597;52.218;9.882;2023-07-29T06:22:43;99823.63;;;19.30;100.00
43770;BME280;6597;52.218;9.882;2023-07-29T06:25:10;99812.41;;;19.26;100.00
43770;BME280;6597;52.218;9.882;2023-07-29T06:27:37;99818.00;;;19.23;100.00
43770;BME280;6597;52.218;9.882;2023-07-29T06:30:05;99831.56;;;19.20;100.00
43770;BME280;6597;52.218;9.882;2023-07-29T06:32:33;99830.81;;;19.18;100.00
43770;BME280;6597;52.218;9.882;2023-07-29T06:35:00;99839.53;;;19.20;100.00
43770;BME280;6597;52.218;9.882;2023-07-29T06:37:27;99835.78;;;19.23;100.00
43770;BME280;6597;52.218;9.882;2023-07-29T06:39:53;99839.59;;;19.30;100.00
43770;BME280;6597;52.218;9.882;2023-07-29T06:42:20;99841.84;;;19.35;100.00
43770;BME280;6597;52.218;9.882;2023-07-29T06:44:46;99839.06;;;19.36;100.00
43770;BME280;6597;52.218;9.882;2023-07-29T06:47:13;99841.91;;;19.44;100.00
43770;BME280;6597;52.218;9.882;2023-07-29T06:49:41;99846.59;;;19.52;100.00
43770;BME280;6597;52.218;9.882;2023-07-29T06:52:07;99844.69;;;19.64;100.00
43770;BME280;6597;52.218;9.882;2023-07-29T06:54:34;99848.50;;;19.71;100.00
43770;BME280;6597;52.218;9.882;2023-07-29T06:57:00;99858.63;;;19.77;100.00
43770;BME280;6597;52.218;9.882;2023-07-29T06:59:27;99851.34;;;19.79;100.00
43770;BME280;6597;52.218;9.882;2023-07-29T07:01:53;99846.53;;;19.73;100.00
43770;BME280;6597;52.218;9.882;2023-07-29T07:04:20;99851.59;;;19.76;100.00
43770;BME280;6597;52.218;9.882;2023-07-29T07:06:48;99849.78;;;19.76;100.00
43770;BME280;6597;52.218;9.882;2023-07-29T07:09:14;99844.44;;;19.76;100.00
43770;BME280;6597;52.218;9.882;2023-07-29T07:11:41;99854.00;;;19.79;100.00
43770;BME280;6597;52.218;9.882;2023-07-29T07:14:07;99854.31;;;19.85;100.00
43770;BME280;6597;52.218;9.882;2023-07-29T07:16:34;99860.94;;;19.91;100.00
43770;BME280;6597;52.218;9.882;2023-07-29T07:19:02;99857.72;;;19.97;100.00
43770;BME280;6597;52.218;9.882;2023-07-29T07:21:28;99849.31;;;20.02;100.00
43770;BME280;6597;52.218;9.882;2023-07-29T07:23:56;99848.19;;;20.04;100.00
43770;BME280;6597;52.218;9.882;2023-07-29T07:26:23;99849.75;;;20.07;100.00
43770;BME280;6597;52.218;9.882;2023-07-29T07:28:49;99853.69;;;20.12;100.00
43770;BME280;6597;52.218;9.882;2023-07-29T07:31:16;99847.22;;;20.15;100.00
43770;BME280;6597;52.218;9.882;2023-07-29T07:33:43;99849.78;;;20.16;100.00
43770;BME280;6597;52.218;9.882;2023-07-29T07:36:10;99847.97;;;20.17;100.00
43770;BME280;6597;52.218;9.882;2023-07-29T07:38:37;99847.97;;;20.17;100.00
43770;BME280;6597;52.218;9.882;2023-07-29T07:41:05;99835.59;;;20.16;100.00
43770;BME280;6597;52.218;9.882;2023-07-29T07:43:31;99844.47;;;20.16;100.00
43770;BME280;6597;52.218;9.882;2023-07-29T07:45:59;99842.75;;;20.15;100.00
43770;BME280;6597;52.218;9.882;2023-07-29T07:48:26;99840.81;;;20.17;100.00
43770;BME280;6597;52.218;9.882;2023-07-29T07:50:52;99838.16;;;20.27;100.00
43770;BME280;6597;52.218;9.882;2023-07-29T07:53:19;99829.31;;;20.36;100.00
43770;BME280;6597;52.218;9.882;2023-07-29T07:55:46;99823.47;;;20.42;100.00
43770;BME280;6597;52.218;9.882;2023-07-29T07:58:14;99819.41;;;20.48;100.00
43770;BME280;6597;52.218;9.882;2023-07-29T08:00:40;99819.00;;;20.53;100.00
43770;BME280;6597;52.218;9.882;2023-07-29T08:03:07;99822.66;;;20.61;100.00
43770;BME280;6597;52.218;9.882;2023-07-29T08:05:33;99824.03;;;20.75;100.00
43770;BME280;6597;52.218;9.882;2023-07-29T08:08:00;99815.59;;;20.89;100.00
43770;BME280;6597;52.218;9.882;2023-07-29T08:10:27;99819.09;;;20.99;100.00
43770;BME280;6597;52.218;9.882;2023-07-29T08:12:53;99811.06;;;21.09;100.00
43770;BME280;6597;52.218;9.882;2023-07-29T08:15:21;99815.00;;;21.15;100.00
43770;BME280;6597;52.218;9.882;2023-07-29T08:17:47;99818.78;;;21.22;100.00
43770;BME280;6597;52.218;9.882;2023-07-29T08:20:14;99824.69;;;21.25;100.00
43770;BME280;6597;52.218;9.882;2023-07-29T08:22:41;99823.41;;;21.29;100.00
43770;BME280;6597;52.218;9.882;2023-07-29T08:25:08;99825.78;;;21.32;100.00
43770;BME280;6597;52.218;9.882;2023-07-29T08:27:34;99819.75;;;21.30;100.00
43770;BME280;6597;52.218;9.882;2023-07-29T08:30:01;99824.56;;;21.27;100.00
43770;BME280;6597;52.218;9.882;2023-07-29T08:32:29;99825.53;;;21.26;100.00
43770;BME280;6597;52.218;9.882;2023-07-29T08:34:55;99828.06;;;21.27;100.00
43770;BME280;6597;52.218;9.882;2023-07-29T08:37:22;99832.72;;;21.25;100.00
43770;BME280;6597;52.218;9.882;2023-07-29T08:39:48;99841.56;;;21.26;100.00
43770;BME280;6597;52.218;9.882;2023-07-29T08:42:16;99839.56;;;21.28;100.00
43770;BME280;6597;52.218;9.882;2023-07-29T08:44:45;99840.72;;;21.25;100.00
43770;BME280;6597;52.218;9.882;2023-07-29T08:47:14;99830.28;;;21.22;100.00
43770;BME280;6597;52.218;9.882;2023-07-29T08:49:43;99834.53;;;21.15;100.00
43770;BME280;6597;52.218;9.882;2023-07-29T08:52:11;99824.97;;;21.12;100.00
43770;BME280;6597;52.218;9.882;2023-07-29T08:54:38;99829.88;;;21.07;100.00
43770;BME280;6597;52.218;9.882;2023-07-29T08:57:06;99836.50;;;21.03;100.00
43770;BME280;6597;52.218;9.882;2023-07-29T08:59:33;99841.28;;;21.00;100.00
43770;BME280;6597;52.218;9.882;2023-07-29T09:01:59;99837.63;;;21.01;100.00
43770;BME280;6597;52.218;9.882;2023-07-29T09:04:26;99835.66;;;21.03;100.00
43770;BME280;6597;52.218;9.882;2023-07-29T09:06:55;99830.47;;;21.01;100.00
43770;BME280;6597;52.218;9.882;2023-07-29T09:09:22;99831.72;;;21.07;100.00
43770;BME280;6597;52.218;9.882;2023-07-29T09:11:49;99838.31;;;21.03;100.00
43770;BME280;6597;52.218;9.882;2023-07-29T09:14:15;99832.69;;;21.06;100.00
43770;BME280;6597;52.218;9.882;2023-07-29T09:16:43;99824.41;;;21.09;100.00
43770;BME280;6597;52.218;9.882;2023-07-29T09:19:09;99821.44;;;21.12;100.00
43770;BME280;6597;52.218;9.882;2023-07-29T09:21:38;99826.94;;;21.20;100.00
43770;BME280;6597;52.218;9.882;2023-07-29T09:24:07;99825.94;;;21.31;100.00
43770;BME280;6597;52.218;9.882;2023-07-29T09:26:34;99827.28;;;21.44;100.00
43770;BME280;6597;52.218;9.882;2023-07-29T09:29:01;99824.75;;;21.53;100.00
43770;BME280;6597;52.218;9.882;2023-07-29T09:31:28;99822.19;;;21.61;100.00
43770;BME280;6597;52.218;9.882;2023-07-29T09:33:56;99820.59;;;21.68;100.00
43770;BME280;6597;52.218;9.882;2023-07-29T09:36:24;99826.03;;;21.76;100.00
43770;BME280;6597;52.218;9.882;2023-07-29T09:38:52;99822.22;;;21.79;99.69
43770;BME280;6597;52.218;9.882;2023-07-29T09:41:22;99818.44;;;21.81;99.82
43770;BME280;6597;52.218;9.882;2023-07-29T09:43:55;99818.84;;;21.86;100.00
43770;BME280;6597;52.218;9.882;2023-07-29T09:46:23;99821.16;;;21.99;99.04
43770;BME280;6597;52.218;9.882;2023-07-29T09:48:53;99820.56;;;22.05;97.26
43770;BME280;6597;52.218;9.882;2023-07-29T09:51:20;99808.16;;;22.14;98.49
43770;BME280;6597;52.218;9.882;2023-07-29T09:53:47;99807.72;;;22.36;97.85
43770;BME280;6597;52.218;9.882;2023-07-29T09:56:14;99806.56;;;22.56;95.14
43770;BME280;6597;52.218;9.882;2023-07-29T09:58:43;99801.19;;;22.74;92.63
43770;BME280;6597;52.218;9.882;2023-07-29T10:01:11;99810.56;;;22.88;90.17
43770;BME280;6597;52.218;9.882;2023-07-29T10:03:38;99815.44;;;22.92;89.54
43770;BME280;6597;52.218;9.882;2023-07-29T10:06:06;99814.13;;;22.96;90.32
43770;BME280;6597;52.218;9.882;2023-07-29T10:08:33;99808.28;;;23.01;89.06
43770;BME280;6597;52.218;9.882;2023-07-29T10:11:01;99808.81;;;23.31;85.80
43770;BME280;6597;52.218;9.882;2023-07-29T10:13:28;99804.88;;;23.69;85.92
43770;BME280;6597;52.218;9.882;2023-07-29T10:15:56;99804.97;;;23.93;84.69
43770;BME280;6597;52.218;9.882;2023-07-29T10:18:24;99796.63;;;24.04;81.96
43770;BME280;6597;52.218;9.882;2023-07-29T10:20:51;99803.81;;;23.96;82.02
43770;BME280;6597;52.218;9.882;2023-07-29T10:23:21;99810.66;;;23.90;80.84
43770;BME280;6597;52.218;9.882;2023-07-29T10:25:52;99809.91;;;23.72;76.73
43770;BME280;6597;52.218;9.882;2023-07-29T10:28:23;99800.09;;;23.54;77.89
43770;BME280;6597;52.218;9.882;2023-07-29T10:30:52;99801.66;;;23.39;76.13
43770;BME280;6597;52.218;9.882;2023-07-29T10:33:19;99808.31;;;23.27;75.97
43770;BME280;6597;52.218;9.882;2023-07-29T10:35:46;99796.56;;;23.54;76.25
43770;BME280;6597;52.218;9.882;2023-07-29T10:38:13;99802.13;;;24.03;77.79
43770;BME280;6597;52.218;9.882;2023-07-29T10:40:45;99793.53;;;24.33;72.95
43770;BME280;6597;52.218;9.882;2023-07-29T10:43:13;99797.22;;;24.32;70.04
43770;BME280;6597;52.218;9.882;2023-07-29T10:45:44;99798.09;;;24.41;69.43
43770;BME280;6597;52.218;9.882;2023-07-29T10:48:11;99797.28;;;24.73;66.82
43770;BME280;6597;52.218;9.882;2023-07-29T10:50:39;99795.44;;;25.06;67.42
43770;BME280;6597;52.218;9.882;2023-07-29T10:53:06;99791.84;;;25.38;66.01
43770;BME280;6597;52.218;9.882;2023-07-29T10:55:34;99784.50;;;25.63;62.50
43770;BME280;6597;52.218;9.882;2023-07-29T10:58:11;99782.09;;;25.84;63.46
43770;BME280;6597;52.218;9.882;2023-07-29T11:00:38;99781.69;;;25.95;64.92
43770;BME280;6597;52.218;9.882;2023-07-29T11:03:06;99780.13;;;26.09;65.99
43770;BME280;6597;52.218;9.882;2023-07-29T11:05:45;99786.38;;;26.01;63.10
43770;BME280;6597;52.218;9.882;2023-07-29T11:08:20;99791.25;;;25.67;59.52
43770;BME280;6597;52.218;9.882;2023-07-29T11:11:01;99789.97;;;25.47;61.63
43770;BME280;6597;52.218;9.882;2023-07-29T11:13:29;99789.56;;;25.58;60.45
43770;BME280;6597;52.218;9.882;2023-07-29T11:15:57;99789.25;;;25.53;59.17
43770;BME280;6597;52.218;9.882;2023-07-29T11:18:26;99798.16;;;25.69;59.10
43770;BME280;6597;52.218;9.882;2023-07-29T11:20:55;99786.06;;;25.96;59.01
43770;BME280;6597;52.218;9.882;2023-07-29T11:23:29;99777.97;;;26.27;55.73
43770;BME280;6597;52.218;9.882;2023-07-29T11:25:56;99790.94;;;26.55;54.22
43770;BME280;6597;52.218;9.882;2023-07-29T11:28:23;99780.56;;;26.66;52.49
43770;BME280;6597;52.218;9.882;2023-07-29T11:30:50;99782.13;;;26.84;55.52
43770;BME280;6597;52.218;9.882;2023-07-29T11:33:18;99781.00;;;27.01;52.89
43770;BME280;6597;52.218;9.882;2023-07-29T11:35:45;99780.81;;;27.17;52.41
43770;BME280;6597;52.218;9.882;2023-07-29T11:38:16;99798.38;;;27.28;53.53
43770;BME280;6597;52.218;9.882;2023-07-29T11:40:54;99788.53;;;27.35;52.14
43770;BME280;6597;52.218;9.882;2023-07-29T11:43:21;99801.84;;;27.37;50.94
43770;BME280;6597;52.218;9.882;2023-07-29T11:45:48;99799.59;;;27.40;51.28
43770;BME280;6597;52.218;9.882;2023-07-29T11:48:15;99806.09;;;27.46;53.07
43770;BME280;6597;52.218;9.882;2023-07-29T11:50:41;99801.28;;;27.41;48.28
43770;BME280;6597;52.218;9.882;2023-07-29T11:53:08;99794.50;;;27.45;48.30
43770;BME280;6597;52.218;9.882;2023-07-29T11:55:36;99803.41;;;27.46;49.79
43770;BME280;6597;52.218;9.882;2023-07-29T11:58:04;99804.06;;;27.48;49.03
43770;BME280;6597;52.218;9.882;2023-07-29T12:00:31;99797.16;;;27.31;47.81
43770;BME280;6597;52.218;9.882;2023-07-29T12:02:57;99807.19;;;27.07;47.75
43770;BME280;6597;52.218;9.882;2023-07-29T12:05:25;99819.44;;;26.64;49.73
43770;BME280;6597;52.218;9.882;2023-07-29T12:07:51;99815.03;;;26.17;49.22
43770;BME280;6597;52.218;9.882;2023-07-29T12:10:18;99813.91;;;26.12;50.49
43770;BME280;6597;52.218;9.882;2023-07-29T12:12:48;99813.13;;;26.26;49.41
43770;BME280;6597;52.218;9.882;2023-07-29T12:15:23;99814.50;;;26.53;48.25
43770;BME280;6597;52.218;9.882;2023-07-29T12:17:52;99814.25;;;26.85;49.00
43770;BME280;6597;52.218;9.882;2023-07-29T12:20:20;99807.09;;;27.15;49.15
43770;BME280;6597;52.218;9.882;2023-07-29T12:22:51;99818.53;;;27.17;47.83
43770;BME280;6597;52.218;9.882;2023-07-29T12:25:18;99814.63;;;27.05;47.82
43770;BME280;6597;52.218;9.882;2023-07-29T12:27:45;99812.28;;;27.02;46.89
43770;BME280;6597;52.218;9.882;2023-07-29T12:30:13;99821.03;;;26.96;46.19
43770;BME280;6597;52.218;9.882;2023-07-29T12:32:43;99811.94;;;26.97;46.65
43770;BME280;6597;52.218;9.882;2023-07-29T12:35:10;99808.09;;;27.00;47.28
43770;BME280;6597;52.218;9.882;2023-07-29T12:37:37;99815.00;;;27.17;48.06
43770;BME280;6597;52.218;9.882;2023-07-29T12:40:05;99820.28;;;27.25;45.56
43770;BME280;6597;52.218;9.882;2023-07-29T12:42:31;99811.84;;;27.28;44.72
43770;BME280;6597;52.218;9.882;2023-07-29T12:44:58;99808.53;;;27.41;44.81
43770;BME280;6597;52.218;9.882;2023-07-29T12:47:26;99818.00;;;27.51;43.18
43770;BME280;6597;52.218;9.882;2023-07-29T12:49:52;99812.41;;;27.53;41.89
43770;BME280;6597;52.218;9.882;2023-07-29T12:52:19;99813.06;;;27.55;44.16
43770;BME280;6597;52.218;9.882;2023-07-29T12:54:45;99817.72;;;27.61;43.44
43770;BME280;6597;52.218;9.882;2023-07-29T12:57:12;99820.81;;;27.73;42.20
43770;BME280;6597;52.218;9.882;2023-07-29T12:59:38;99824.81;;;27.62;43.56
43770;BME280;6597;52.218;9.882;2023-07-29T13:02:05;99821.25;;;27.32;43.48
43770;BME280;6597;52.218;9.882;2023-07-29T13:04:33;99822.13;;;26.87;43.19